createdAt,value
2023-07-24T00:01:07.860Z,94.89
2023-07-24T00:03:34.511Z,94.07
2023-07-24T00:06:01.198Z,93.20
2023-07-24T00:08:27.790Z,93.45
2023-07-24T00:10:54.974Z,93.51
2023-07-24T00:13:21.488Z,92.88
2023-07-24T00:15:48.090Z,92.95
2023-07-24T00:18:14.642Z,93.09
2023-07-24T00:20:41.265Z,93.78
2023-07-24T00:23:07.925Z,94.82
2023-07-24T00:25:34.482Z,93.94
2023-07-24T00:28:01.008Z,94.28
2023-07-24T00:30:27.553Z,94.13
2023-07-24T00:32:54.200Z,94.41
2023-07-24T00:35:20.953Z,94.34
2023-07-24T00:37:47.523Z,94.14
2023-07-24T00:40:14.093Z,93.67
2023-07-24T00:42:40.690Z,94.09
2023-07-24T00:45:07.779Z,93.72
2023-07-24T00:47:34.486Z,94.16
2023-07-24T00:50:01.083Z,94.03
2023-07-24T00:52:27.628Z,94.08
2023-07-24T00:54:54.678Z,94.59
2023-07-24T00:57:21.405Z,94.60
2023-07-24T00:59:48.034Z,94.30
2023-07-24T01:02:14.629Z,94.48
2023-07-24T01:04:41.403Z,94.22
2023-07-24T01:07:07.934Z,94.12
2023-07-24T01:09:34.519Z,94.46
2023-07-24T01:12:36.338Z,94.61
2023-07-24T01:15:16.664Z,94.89
2023-07-24T01:17:49.165Z,94.40
2023-07-24T01:20:18.633Z,94.27
2023-07-24T01:23:05.603Z,94.18
2023-07-24T01:25:37.006Z,93.97
2023-07-24T01:28:10.652Z,93.74
2023-07-24T01:30:37.307Z,93.31
2023-07-24T01:33:04.101Z,93.82
2023-07-24T01:35:32.322Z,93.59
2023-07-24T01:38:00.878Z,93.80
2023-07-24T01:40:27.419Z,93.84
2023-07-24T01:42:54.127Z,94.22
2023-07-24T01:45:20.674Z,95.48
2023-07-24T01:47:47.373Z,95.08
2023-07-24T01:50:14.023Z,94.96
2023-07-24T01:52:40.541Z,94.91
2023-07-24T01:55:07.454Z,95.02
2023-07-24T01:57:33.955Z,95.03
2023-07-24T02:00:00.471Z,95.07
2023-07-24T02:02:27.015Z,95.21
2023-07-24T02:04:53.594Z,97.32
2023-07-24T02:07:20.178Z,97.12
2023-07-24T02:09:46.741Z,97.42
2023-07-24T02:12:13.244Z,96.45
2023-07-24T02:14:39.799Z,98.17
2023-07-24T02:17:06.428Z,97.83
2023-07-24T02:19:32.977Z,98.65
2023-07-24T02:21:59.547Z,98.59
2023-07-24T02:24:26.093Z,96.63
2023-07-24T02:26:52.703Z,96.60
2023-07-24T02:29:20.029Z,96.09
2023-07-24T02:31:46.546Z,95.23
2023-07-24T02:34:13.089Z,95.89
2023-07-24T02:36:40.150Z,96.78
2023-07-24T02:39:06.674Z,96.53
2023-07-24T02:41:33.264Z,97.43
2023-07-24T02:43:59.772Z,98.16
2023-07-24T02:46:26.401Z,97.04
2023-07-24T02:48:53.655Z,97.51
2023-07-24T02:51:20.262Z,97.49
2023-07-24T02:53:46.839Z,97.59
2023-07-24T02:56:13.361Z,97.39
2023-07-24T02:58:39.954Z,97.52
2023-07-24T03:01:08.274Z,97.20
2023-07-24T03:03:35.936Z,98.12
2023-07-24T03:06:02.886Z,96.73
2023-07-24T03:08:29.418Z,97.26
2023-07-24T03:10:55.909Z,97.11
2023-07-24T03:13:22.438Z,96.98
2023-07-24T03:15:57.179Z,97.63
2023-07-24T03:18:24.103Z,98.38
2023-07-24T03:20:50.622Z,98.28
2023-07-24T03:23:17.270Z,96.66
2023-07-24T03:25:43.880Z,98.23
2023-07-24T03:28:10.932Z,98.52
2023-07-24T03:30:37.439Z,98.99
2023-07-24T03:33:04.225Z,97.64
2023-07-24T03:35:30.791Z,97.09
2023-07-24T03:37:57.299Z,98.20
2023-07-24T03:40:23.880Z,99.29
2023-07-24T03:42:50.461Z,99.63
2023-07-24T03:45:17.104Z,98.45
2023-07-24T03:47:44.273Z,99.39
2023-07-24T03:50:10.941Z,100.00
2023-07-24T03:52:37.410Z,100.00
2023-07-24T03:55:04.793Z,99.31
2023-07-24T03:57:31.379Z,99.62
2023-07-24T03:59:57.968Z,100.00
2023-07-24T04:02:24.921Z,99.36
2023-07-24T04:04:51.556Z,98.86
2023-07-24T04:07:18.108Z,98.47
2023-07-24T04:09:44.609Z,98.27
2023-07-24T04:12:11.126Z,98.81
2023-07-24T04:14:37.617Z,97.72
2023-07-24T04:17:04.440Z,97.53
2023-07-24T04:19:31.446Z,97.96
2023-07-24T04:21:57.930Z,98.15
2023-07-24T04:24:24.473Z,97.60
2023-07-24T04:26:50.957Z,97.16
2023-07-24T04:29:17.519Z,97.93
2023-07-24T04:31:44.164Z,98.01
2023-07-24T04:34:10.775Z,97.64
2023-07-24T04:36:37.350Z,97.72
2023-07-24T04:39:03.985Z,97.25
2023-07-24T04:41:30.516Z,98.32
2023-07-24T04:43:57.013Z,97.82
2023-07-24T04:46:23.632Z,98.57
2023-07-24T04:48:50.184Z,98.57
2023-07-24T04:51:16.698Z,98.25
2023-07-24T04:53:43.202Z,99.04
2023-07-24T04:56:09.717Z,98.86
2023-07-24T04:58:36.217Z,99.00
2023-07-24T05:01:06.152Z,99.26
2023-07-24T05:03:33.566Z,99.29
2023-07-24T05:06:00.171Z,99.88
2023-07-24T05:08:26.733Z,99.82
2023-07-24T05:10:59.963Z,100.00
2023-07-24T05:13:27.498Z,99.69
2023-07-24T05:15:54.064Z,99.40
2023-07-24T05:18:20.861Z,99.57
2023-07-24T05:20:48.563Z,99.23
2023-07-24T05:23:15.785Z,98.08
2023-07-24T05:25:42.442Z,96.95
2023-07-24T05:28:09.130Z,96.35
2023-07-24T05:30:35.807Z,96.51
2023-07-24T05:33:02.371Z,95.62
2023-07-24T05:35:28.949Z,92.18
2023-07-24T05:37:55.450Z,91.78
2023-07-24T05:40:21.946Z,91.86
2023-07-24T05:42:48.975Z,91.44
2023-07-24T05:45:18.696Z,90.76
2023-07-24T05:47:45.273Z,90.42
2023-07-24T05:50:14.415Z,88.64
2023-07-24T05:52:41.607Z,89.06
2023-07-24T05:55:08.823Z,89.04
2023-07-24T05:57:35.353Z,88.69
2023-07-24T06:00:02.129Z,88.64
2023-07-24T06:02:28.612Z,88.37
2023-07-24T06:04:55.159Z,88.25
2023-07-24T06:07:21.719Z,87.75
2023-07-24T06:09:48.243Z,87.80
2023-07-24T06:12:14.962Z,87.07
2023-07-24T06:14:41.514Z,86.70
2023-07-24T06:17:08.267Z,86.57
2023-07-24T06:19:35.453Z,86.31
2023-07-24T06:22:02.056Z,84.97
2023-07-24T06:24:28.703Z,85.16
2023-07-24T06:26:55.402Z,84.86
2023-07-24T06:29:23.600Z,83.59
2023-07-24T06:31:50.946Z,85.15
2023-07-24T06:34:17.612Z,83.26
2023-07-24T06:36:44.249Z,83.44
2023-07-24T06:39:10.823Z,83.60
2023-07-24T06:41:37.365Z,83.75
2023-07-24T06:44:04.081Z,82.57
2023-07-24T06:46:31.056Z,83.05
2023-07-24T06:48:57.958Z,83.46
2023-07-24T06:51:24.483Z,82.44
2023-07-24T06:53:51.060Z,82.92
2023-07-24T06:56:17.610Z,82.91
2023-07-24T06:58:44.178Z,82.48
2023-07-24T07:01:10.723Z,81.86
2023-07-24T07:03:37.395Z,81.86
2023-07-24T07:06:04.481Z,81.59
2023-07-24T07:08:31.423Z,81.30
2023-07-24T07:11:01.708Z,81.84
2023-07-24T07:13:28.606Z,81.79
2023-07-24T07:15:55.168Z,82.04
2023-07-24T07:18:21.824Z,81.58
2023-07-24T07:20:54.197Z,81.44
2023-07-24T07:23:21.721Z,81.19
2023-07-24T07:25:48.411Z,81.63
2023-07-24T07:28:15.922Z,80.83
2023-07-24T07:30:44.960Z,79.84
2023-07-24T07:33:12.577Z,79.68
2023-07-24T07:35:39.109Z,79.24
2023-07-24T07:38:05.704Z,79.33
2023-07-24T07:40:32.211Z,79.17
2023-07-24T07:42:58.772Z,79.39
2023-07-24T07:45:25.589Z,79.41
2023-07-24T07:47:54.390Z,79.06
2023-07-24T07:50:21.273Z,78.23
2023-07-24T07:52:51.046Z,78.15
2023-07-24T07:55:17.778Z,77.80
2023-07-24T07:57:44.331Z,78.05
2023-07-24T08:00:11.528Z,78.46
2023-07-24T08:02:41.291Z,77.87
2023-07-24T08:05:20.880Z,78.14
2023-07-24T08:07:48.325Z,78.06
2023-07-24T08:10:16.845Z,77.61
2023-07-24T08:12:44.445Z,77.88
2023-07-24T08:15:11.814Z,78.27
2023-07-24T08:17:38.518Z,78.07
2023-07-24T08:20:05.733Z,77.36
2023-07-24T08:22:32.239Z,77.29
2023-07-24T08:24:58.822Z,77.11
2023-07-24T08:27:25.376Z,76.88
2023-07-24T08:29:53.723Z,76.67
2023-07-24T08:32:20.910Z,76.56
2023-07-24T08:34:47.440Z,76.89
2023-07-24T08:37:14.051Z,77.68
2023-07-24T08:39:40.821Z,77.45
2023-07-24T08:42:14.629Z,77.17
2023-07-24T08:44:41.312Z,77.64
2023-07-24T08:47:11.444Z,77.75
2023-07-24T08:49:40.083Z,77.66
2023-07-24T08:52:07.432Z,78.26
2023-07-24T08:54:36.623Z,77.91
2023-07-24T08:57:03.593Z,78.32
2023-07-24T08:59:30.921Z,77.62
2023-07-24T09:01:57.446Z,77.44
2023-07-24T09:04:25.728Z,78.14
2023-07-24T09:06:52.698Z,78.07
2023-07-24T09:09:19.258Z,77.64
2023-07-24T09:11:48.811Z,78.85
2023-07-24T09:14:28.173Z,77.82
2023-07-24T09:17:10.805Z,78.06
2023-07-24T09:19:38.371Z,78.01
2023-07-24T09:22:16.200Z,76.87
2023-07-24T09:27:27.748Z,76.65
2023-07-24T09:29:55.588Z,75.51
2023-07-24T09:32:23.422Z,75.26
2023-07-24T09:34:55.381Z,75.88
2023-07-24T09:37:28.878Z,74.80
2023-07-24T09:39:55.479Z,74.66
2023-07-24T09:42:44.784Z,73.63
2023-07-24T09:45:23.388Z,72.15
2023-07-24T09:47:56.738Z,72.45
2023-07-24T09:50:27.245Z,73.21
2023-07-24T09:52:55.881Z,72.97
2023-07-24T09:55:36.020Z,73.87
2023-07-24T09:58:02.702Z,72.65
2023-07-24T10:00:30.216Z,73.26
2023-07-24T10:02:57.209Z,72.07
2023-07-24T10:05:24.235Z,71.60
2023-07-24T10:07:51.931Z,71.89
2023-07-24T10:10:18.889Z,72.09
2023-07-24T10:12:45.958Z,70.13
2023-07-24T10:15:12.797Z,70.58
2023-07-24T10:17:41.716Z,70.10
2023-07-24T10:20:13.249Z,69.52
2023-07-24T10:22:44.073Z,70.29
2023-07-24T10:25:11.945Z,71.69
2023-07-24T10:27:48.378Z,71.38
2023-07-24T10:30:33.789Z,71.23
2023-07-24T10:33:12.379Z,71.44
2023-07-24T10:35:39.977Z,71.43
2023-07-24T10:38:06.575Z,70.47
2023-07-24T10:40:34.638Z,71.04
2023-07-24T10:43:09.259Z,70.29
2023-07-24T10:46:02.295Z,70.48
2023-07-24T10:48:28.948Z,71.17
2023-07-24T10:50:55.646Z,69.11
2023-07-24T10:53:24.305Z,68.56
2023-07-24T10:55:52.579Z,68.48
2023-07-24T10:58:19.380Z,67.90
2023-07-24T11:00:48.417Z,68.72
2023-07-24T11:03:16.170Z,68.48
2023-07-24T11:05:47.578Z,69.70
2023-07-24T11:08:16.489Z,69.52
2023-07-24T11:10:54.318Z,69.37
2023-07-24T11:13:23.672Z,70.29
2023-07-24T11:15:51.126Z,69.85
2023-07-24T11:18:17.896Z,71.68
2023-07-24T11:20:47.349Z,72.21
2023-07-24T11:23:14.264Z,74.99
2023-07-24T11:25:41.560Z,78.38
2023-07-24T11:28:09.910Z,82.74
2023-07-24T11:30:36.917Z,79.83
2023-07-24T11:33:06.428Z,81.98
2023-07-24T11:35:33.721Z,81.21
2023-07-24T11:38:00.640Z,80.30
2023-07-24T11:40:39.159Z,83.13
2023-07-24T11:43:06.139Z,82.23
2023-07-24T11:45:42.078Z,83.30
2023-07-24T11:48:12.833Z,83.69
2023-07-24T11:50:47.652Z,85.48
2023-07-24T11:53:28.742Z,91.49
2023-07-24T11:55:57.844Z,93.28
2023-07-24T11:58:27.428Z,94.19
2023-07-24T12:00:54.393Z,95.26
2023-07-24T12:03:22.969Z,96.78
2023-07-24T12:05:50.915Z,97.91
2023-07-24T12:08:21.488Z,99.36
2023-07-24T12:10:49.728Z,97.28
2023-07-24T12:13:18.230Z,95.56
2023-07-24T12:15:45.915Z,94.33
2023-07-24T12:18:12.460Z,97.99
2023-07-24T12:20:39.464Z,97.85
2023-07-24T12:23:06.046Z,94.65
2023-07-24T12:25:33.080Z,92.59
2023-07-24T12:28:00.039Z,88.91
2023-07-24T12:30:26.723Z,87.04
2023-07-24T12:32:53.287Z,82.94
2023-07-24T12:35:19.950Z,83.20
2023-07-24T12:37:46.979Z,81.36
2023-07-24T12:40:14.241Z,79.02
2023-07-24T12:42:40.837Z,77.44
2023-07-24T12:45:07.868Z,74.04
2023-07-24T12:47:34.667Z,71.47
2023-07-24T12:50:01.796Z,67.93
2023-07-24T12:52:30.516Z,71.88
2023-07-24T12:55:02.283Z,72.79
2023-07-24T12:57:29.890Z,70.52
2023-07-24T12:59:56.528Z,69.94
2023-07-24T13:02:23.150Z,72.19
2023-07-24T13:04:49.786Z,71.55
2023-07-24T13:07:16.506Z,69.76
2023-07-24T13:09:43.174Z,71.33
2023-07-24T13:12:10.268Z,69.43
2023-07-24T13:14:38.490Z,68.91
2023-07-24T13:17:07.026Z,71.69
2023-07-24T13:19:33.732Z,71.50
2023-07-24T13:22:00.376Z,69.22
2023-07-24T13:24:27.162Z,69.41
2023-07-24T13:26:53.739Z,71.88
2023-07-24T13:29:20.615Z,71.42
2023-07-24T13:31:47.948Z,70.26
2023-07-24T13:34:14.493Z,71.58
2023-07-24T13:36:41.081Z,70.77
2023-07-24T13:39:07.685Z,71.29
2023-07-24T13:41:34.488Z,70.89
2023-07-24T13:44:01.484Z,71.05
2023-07-24T13:46:28.141Z,69.62
2023-07-24T13:48:54.727Z,71.08
2023-07-24T13:51:21.281Z,71.06
2023-07-24T13:53:49.584Z,70.82
2023-07-24T13:56:16.297Z,70.76
2023-07-24T13:58:42.867Z,71.25
2023-07-24T14:01:09.652Z,72.12
2023-07-24T14:03:36.377Z,72.45
2023-07-24T14:06:03.621Z,70.01
2023-07-24T14:08:30.153Z,71.35
2023-07-24T14:10:56.971Z,71.39
2023-07-24T14:13:23.615Z,71.12
2023-07-24T14:15:50.332Z,73.36
2023-07-24T14:18:17.029Z,73.34
2023-07-24T14:20:43.668Z,74.00
2023-07-24T14:25:54.296Z,75.24
2023-07-24T14:28:20.898Z,74.76
2023-07-24T14:30:48.241Z,75.31
2023-07-24T14:33:14.892Z,78.66
2023-07-24T14:35:41.414Z,79.45
2023-07-24T14:38:07.948Z,78.20
2023-07-24T14:40:34.571Z,80.18
2023-07-24T14:43:01.136Z,82.28
2023-07-24T14:45:28.063Z,84.24
2023-07-24T14:47:54.730Z,84.03
2023-07-24T14:50:21.322Z,84.89
2023-07-24T14:52:47.935Z,85.79
2023-07-24T14:55:15.665Z,87.47
2023-07-24T14:57:42.277Z,84.17
2023-07-24T15:00:09.715Z,84.00
2023-07-24T15:02:36.427Z,82.48
2023-07-24T15:05:03.256Z,84.83
2023-07-24T15:07:30.474Z,81.44
2023-07-24T15:09:57.463Z,78.93
2023-07-24T15:12:24.174Z,81.19
2023-07-24T15:14:50.754Z,77.85
2023-07-24T15:17:19.372Z,76.42
2023-07-24T15:19:46.198Z,78.15
2023-07-24T15:22:12.791Z,76.49
2023-07-24T15:24:41.093Z,75.70
2023-07-24T15:27:09.203Z,74.99
2023-07-24T15:29:39.025Z,73.18
2023-07-24T15:32:06.500Z,73.22
2023-07-24T15:34:33.214Z,71.01
2023-07-24T15:37:00.130Z,68.64
2023-07-24T15:39:26.732Z,67.19
2023-07-24T15:41:53.332Z,68.82
2023-07-24T15:44:19.887Z,67.71
2023-07-24T15:46:48.034Z,67.85
2023-07-24T15:49:15.456Z,65.05
2023-07-24T15:51:42.001Z,67.20
2023-07-24T15:54:11.266Z,67.00
2023-07-24T15:56:39.999Z,62.04
2023-07-24T15:59:06.778Z,64.91
2023-07-24T16:01:33.837Z,64.22
2023-07-24T16:04:00.819Z,61.31
2023-07-24T16:06:27.492Z,62.31
2023-07-24T16:08:54.131Z,63.69
2023-07-24T16:11:20.655Z,60.29
2023-07-24T16:13:47.379Z,64.09
2023-07-24T16:16:15.685Z,65.00
2023-07-24T16:18:42.798Z,66.23
2023-07-24T16:21:09.361Z,68.31
2023-07-24T16:23:36.249Z,69.09
2023-07-24T16:26:05.893Z,72.92
2023-07-24T16:28:32.504Z,72.14
2023-07-24T16:30:59.871Z,72.77
2023-07-24T16:33:26.607Z,75.14
2023-07-24T16:35:53.403Z,74.07
2023-07-24T16:38:20.126Z,73.61
2023-07-24T16:40:46.786Z,74.78
2023-07-24T16:43:13.339Z,75.43
2023-07-24T16:45:39.932Z,74.50
2023-07-24T16:48:06.990Z,74.04
2023-07-24T16:50:36.256Z,74.58
2023-07-24T16:53:03.859Z,74.56
2023-07-24T16:55:30.750Z,74.50
2023-07-24T16:57:57.731Z,75.30
2023-07-24T17:00:24.365Z,75.87
2023-07-24T17:02:51.143Z,76.05
2023-07-24T17:05:17.882Z,75.94
2023-07-24T17:07:44.470Z,77.23
2023-07-24T17:10:11.082Z,77.29
2023-07-24T17:12:38.103Z,77.10
2023-07-24T17:15:05.018Z,77.63
2023-07-24T17:17:31.643Z,79.10
2023-07-24T17:19:58.328Z,80.94
2023-07-24T17:22:24.940Z,81.98
2023-07-24T17:24:52.157Z,84.78
2023-07-24T17:27:19.015Z,87.53
2023-07-24T17:29:46.670Z,89.26
2023-07-24T17:32:14.276Z,87.01
2023-07-24T17:34:42.335Z,87.03
2023-07-24T17:37:14.221Z,86.47
2023-07-24T17:39:44.913Z,86.41
2023-07-24T17:42:11.496Z,86.10
2023-07-24T17:44:38.332Z,86.81
2023-07-24T17:47:04.884Z,86.77
2023-07-24T17:49:31.431Z,87.51
2023-07-24T17:51:57.964Z,87.61
2023-07-24T17:54:24.871Z,86.73
2023-07-24T17:56:51.577Z,86.86
2023-07-24T17:59:18.239Z,86.90
2023-07-24T18:01:45.251Z,85.97
2023-07-24T18:04:11.782Z,85.41
2023-07-24T18:06:38.334Z,84.76
2023-07-24T18:09:05.005Z,83.58
2023-07-24T18:11:31.792Z,83.93
2023-07-24T18:13:58.525Z,84.77
2023-07-24T18:16:25.127Z,85.74
2023-07-24T18:18:52.057Z,83.73
2023-07-24T18:21:24.437Z,84.07
2023-07-24T18:23:52.549Z,83.83
2023-07-24T18:26:19.119Z,84.80
2023-07-24T18:28:45.737Z,84.11
2023-07-24T18:31:12.323Z,83.99
2023-07-24T18:33:39.170Z,84.77
2023-07-24T18:36:08.680Z,84.42
2023-07-24T18:38:36.867Z,84.53
2023-07-24T18:41:03.546Z,83.89
2023-07-24T18:43:30.107Z,84.67
2023-07-24T18:45:58.327Z,85.84
2023-07-24T18:48:28.192Z,86.26
2023-07-24T18:50:54.747Z,87.76
2023-07-24T18:53:21.612Z,88.47
2023-07-24T18:55:48.359Z,89.16
2023-07-24T18:58:14.933Z,90.41
2023-07-24T19:00:41.483Z,89.30
2023-07-24T19:03:08.166Z,90.19
2023-07-24T19:05:35.237Z,90.18
2023-07-24T19:08:01.956Z,90.75
2023-07-24T19:10:28.544Z,90.61
2023-07-24T19:12:55.205Z,91.32
2023-07-24T19:15:21.895Z,91.25
2023-07-24T19:17:48.957Z,92.08
2023-07-24T19:20:16.190Z,92.94
2023-07-24T19:22:42.826Z,92.38
2023-07-24T19:25:09.689Z,92.62
2023-07-24T19:27:36.446Z,91.25
2023-07-24T19:30:06.973Z,90.75
2023-07-24T19:32:35.331Z,91.77
2023-07-24T19:35:04.031Z,91.52
2023-07-24T19:37:30.642Z,90.89
2023-07-24T19:39:57.324Z,90.90
2023-07-24T19:42:23.946Z,91.59
2023-07-24T19:44:50.510Z,91.92
2023-07-24T19:47:17.139Z,93.04
2023-07-24T19:49:44.196Z,93.53
2023-07-24T19:52:10.794Z,93.62
2023-07-24T19:54:37.444Z,93.92
2023-07-24T19:57:04.292Z,92.94
2023-07-24T19:59:30.892Z,92.01
2023-07-24T20:01:57.659Z,91.25
2023-07-24T20:04:24.485Z,92.61
2023-07-24T20:06:51.088Z,93.42
2023-07-24T20:09:17.755Z,93.23
2023-07-24T20:11:46.704Z,94.63
2023-07-24T20:14:14.631Z,94.76
2023-07-24T20:16:41.183Z,94.85
2023-07-24T20:19:07.832Z,95.37
2023-07-24T20:21:34.393Z,94.42
2023-07-24T20:24:13.944Z,93.77
2023-07-24T20:26:40.892Z,93.85
2023-07-24T20:29:07.574Z,92.60
2023-07-24T20:31:34.737Z,92.61
2023-07-24T20:34:01.649Z,93.14
2023-07-24T20:36:28.281Z,93.51
2023-07-24T20:38:54.884Z,94.57
2023-07-24T20:41:21.526Z,93.83
2023-07-24T20:43:48.065Z,95.43
2023-07-24T20:46:16.522Z,95.50
2023-07-24T20:48:43.970Z,93.92
2023-07-24T20:51:24.487Z,94.30
2023-07-24T20:53:52.393Z,94.05
2023-07-24T20:56:23.741Z,93.88
2023-07-24T20:58:50.368Z,93.97
2023-07-24T21:01:17.005Z,94.53
2023-07-24T21:03:43.645Z,93.64
2023-07-24T21:06:10.274Z,93.99
2023-07-24T21:08:36.913Z,94.82
2023-07-24T21:11:03.803Z,94.05
2023-07-24T21:13:30.546Z,94.32
2023-07-24T21:15:57.333Z,94.78
2023-07-24T21:18:24.288Z,94.41
2023-07-24T21:20:50.911Z,94.82
2023-07-24T21:23:17.445Z,94.44
2023-07-24T21:25:55.931Z,93.63
2023-07-24T21:28:23.209Z,93.20
2023-07-24T21:30:50.003Z,93.61
2023-07-24T21:33:17.428Z,92.95
2023-07-24T21:35:44.109Z,92.95
2023-07-24T21:38:11.647Z,92.53
2023-07-24T21:40:39.769Z,92.24
2023-07-24T21:43:06.322Z,92.25
2023-07-24T21:45:32.898Z,92.11
2023-07-24T21:48:01.828Z,92.28
2023-07-24T21:50:28.533Z,91.74
2023-07-24T21:52:55.090Z,91.74
2023-07-24T21:55:21.867Z,91.37
2023-07-24T21:57:48.673Z,91.17
2023-07-24T22:00:15.617Z,90.96
2023-07-24T22:02:42.272Z,90.83
2023-07-24T22:05:09.044Z,90.53
2023-07-24T22:07:35.588Z,90.43
2023-07-24T22:10:02.212Z,90.71
2023-07-24T22:12:28.962Z,90.60
2023-07-24T22:14:55.579Z,90.35
2023-07-24T22:17:28.850Z,89.86
2023-07-24T22:19:58.318Z,89.80
2023-07-24T22:22:24.871Z,90.13
2023-07-24T22:24:51.568Z,90.27
2023-07-24T22:27:18.307Z,90.19
2023-07-24T22:29:45.246Z,90.29
2023-07-24T22:32:11.901Z,90.87
2023-07-24T22:34:38.460Z,90.83
2023-07-24T22:37:07.031Z,90.66
2023-07-24T22:39:34.464Z,90.75
2023-07-24T22:42:02.230Z,90.84
2023-07-24T22:44:29.417Z,90.59
2023-07-24T22:46:56.164Z,91.00
2023-07-24T22:49:23.344Z,90.17
2023-07-24T22:51:50.076Z,90.10
2023-07-24T22:54:16.625Z,89.64
2023-07-24T22:56:43.541Z,89.65
2023-07-24T22:59:22.352Z,90.10
2023-07-24T23:01:50.735Z,89.75
2023-07-24T23:04:17.565Z,89.73
2023-07-24T23:06:44.763Z,90.09
2023-07-24T23:09:11.503Z,89.74
2023-07-24T23:11:38.037Z,89.78
2023-07-24T23:14:04.647Z,89.98
2023-07-24T23:16:31.261Z,89.97
2023-07-24T23:18:57.829Z,90.06
2023-07-24T23:21:24.463Z,90.02
2023-07-24T23:23:51.008Z,90.44
2023-07-24T23:26:18.010Z,90.42
2023-07-24T23:28:44.810Z,90.44
2023-07-24T23:31:11.371Z,90.01
2023-07-24T23:33:38.806Z,90.15
2023-07-24T23:36:08.485Z,90.19
2023-07-24T23:38:36.609Z,89.74
2023-07-24T23:41:05.768Z,90.22
2023-07-24T23:43:33.120Z,89.87
2023-07-24T23:46:00.015Z,90.02
2023-07-24T23:48:26.745Z,90.24
2023-07-24T23:50:53.406Z,89.88
2023-07-24T23:53:20.493Z,90.01
2023-07-24T23:55:47.159Z,89.94
2023-07-24T23:58:13.731Z,89.58
